createdAt,value
2018-07-19T00:01:02.019Z,65.80
2018-07-19T00:03:29.941Z,65.90
2018-07-19T00:05:57.809Z,66.10
2018-07-19T00:11:56.605Z,66.50
2018-07-19T00:14:24.148Z,66.80
2018-07-19T00:16:51.671Z,67.20
2018-07-19T00:19:19.188Z,67.60
2018-07-19T00:21:46.729Z,68.00
2018-07-19T00:24:14.241Z,68.20
2018-07-19T00:26:41.770Z,68.20
2018-07-19T00:29:09.295Z,68.20
2018-07-19T00:31:36.823Z,68.20
2018-07-19T00:34:04.357Z,68.10
2018-07-19T00:36:31.888Z,68.10
2018-07-19T00:38:59.412Z,68.00
2018-07-19T00:41:26.949Z,68.00
2018-07-19T00:43:54.468Z,68.00
2018-07-19T00:46:21.998Z,68.70
2018-07-19T00:48:49.512Z,68.10
2018-07-19T00:51:17.040Z,68.20
2018-07-19T00:53:44.551Z,68.40
2018-07-19T00:56:12.078Z,68.50
2018-07-19T00:58:39.604Z,68.50
2018-07-19T01:01:07.142Z,68.70
2018-07-19T01:03:34.672Z,68.60
2018-07-19T01:06:02.188Z,68.50
2018-07-19T01:08:29.711Z,68.60
2018-07-19T01:10:57.279Z,68.40
2018-07-19T01:13:24.816Z,68.50
2018-07-19T01:15:52.595Z,68.50
2018-07-19T01:18:20.136Z,68.70
2018-07-19T01:20:47.720Z,68.90
2018-07-19T01:23:15.280Z,69.10
2018-07-19T01:25:42.824Z,69.20
2018-07-19T01:28:10.456Z,69.20
2018-07-19T01:30:37.993Z,68.60
2018-07-19T01:33:05.560Z,69.30
2018-07-19T01:35:33.107Z,69.30
2018-07-19T01:38:00.665Z,69.50
2018-07-19T01:40:28.211Z,69.70
2018-07-19T01:42:55.765Z,69.90
2018-07-19T01:45:23.320Z,70.00
2018-07-19T01:47:50.865Z,70.20
2018-07-19T01:50:18.411Z,70.30
2018-07-19T01:52:45.947Z,69.90
2018-07-19T01:55:13.494Z,70.60
2018-07-19T01:57:41.040Z,70.80
2018-07-19T02:00:08.667Z,70.80
2018-07-19T02:02:36.158Z,70.80
2018-07-19T02:05:04.368Z,71.00
2018-07-19T02:07:31.912Z,71.60
2018-07-19T02:09:59.455Z,71.70
2018-07-19T02:12:27.028Z,71.90
2018-07-19T02:14:54.575Z,72.10
2018-07-19T02:17:22.130Z,72.30
2018-07-19T02:19:49.684Z,72.30
2018-07-19T02:22:17.234Z,72.50
2018-07-19T02:27:12.556Z,72.90
2018-07-19T02:29:40.108Z,73.30
2018-07-19T02:32:07.656Z,73.70
2018-07-19T02:34:35.209Z,73.90
2018-07-19T02:37:02.756Z,74.80
2018-07-19T02:39:30.298Z,74.50
2018-07-19T02:41:57.838Z,74.80
2018-07-19T02:44:25.397Z,75.00
2018-07-19T02:46:52.957Z,75.50
2018-07-19T02:49:20.515Z,75.70
2018-07-19T02:51:48.055Z,76.00
2018-07-19T02:54:15.648Z,76.20
2018-07-19T02:56:43.181Z,76.40
2018-07-19T02:59:10.740Z,76.60
2018-07-19T03:01:38.284Z,76.80
2018-07-19T03:04:05.847Z,77.00
2018-07-19T03:06:33.436Z,77.20
2018-07-19T03:09:00.960Z,77.60
2018-07-19T03:11:28.507Z,78.10
2018-07-19T03:13:56.027Z,78.50
2018-07-19T03:16:23.559Z,78.80
2018-07-19T03:18:51.083Z,79.00
2018-07-19T03:21:18.593Z,79.10
2018-07-19T03:23:46.119Z,79.30
2018-07-19T03:26:13.649Z,80.00
2018-07-19T03:28:41.216Z,80.20
2018-07-19T03:31:09.344Z,80.60
2018-07-19T03:33:36.876Z,80.70
2018-07-19T03:36:04.483Z,80.90
2018-07-19T03:38:31.995Z,81.10
2018-07-19T03:40:59.716Z,81.50
2018-07-19T03:43:27.265Z,82.00
2018-07-19T03:45:54.792Z,82.30
2018-07-19T03:50:49.920Z,82.90
2018-07-19T03:53:17.452Z,82.90
2018-07-19T03:55:44.988Z,83.10
2018-07-19T03:58:12.520Z,83.20
2018-07-19T04:00:40.048Z,83.10
2018-07-19T04:05:35.163Z,83.00
2018-07-19T04:08:02.680Z,83.20
2018-07-19T04:10:30.235Z,83.40
2018-07-19T04:12:57.776Z,83.30
2018-07-19T04:15:25.322Z,83.60
2018-07-19T04:17:56.855Z,83.30
2018-07-19T04:20:25.643Z,83.10
2018-07-19T04:22:53.916Z,82.90
2018-07-19T04:25:21.888Z,82.70
2018-07-19T04:27:49.465Z,82.50
2018-07-19T04:30:17.023Z,82.50
2018-07-19T04:32:44.664Z,82.90
2018-07-19T04:35:12.335Z,81.90
2018-07-19T04:37:39.998Z,81.60
2018-07-19T04:40:07.553Z,81.20
2018-07-19T04:42:35.327Z,81.00
2018-07-19T04:45:03.389Z,81.00
2018-07-19T04:47:30.944Z,81.00
2018-07-19T04:49:58.498Z,80.90
2018-07-19T04:52:26.075Z,80.70
2018-07-19T04:54:53.616Z,80.40
2018-07-19T04:57:21.164Z,80.00
2018-07-19T04:59:48.712Z,78.90
2018-07-19T05:02:16.277Z,76.20
2018-07-19T05:04:43.819Z,70.90
2018-07-19T05:07:11.395Z,65.20
2018-07-19T05:09:38.920Z,60.40
2018-07-19T05:12:06.488Z,57.30
2018-07-19T05:14:34.035Z,54.70
2018-07-19T05:17:01.588Z,52.40
2018-07-19T05:19:29.136Z,50.60
2018-07-19T05:21:56.705Z,48.30
2018-07-19T05:24:24.268Z,47.40
2018-07-19T05:26:51.915Z,46.60
2018-07-19T05:29:19.477Z,45.70
2018-07-19T05:31:47.036Z,44.90
2018-07-19T05:34:14.597Z,44.40
2018-07-19T05:36:42.165Z,43.50
2018-07-19T05:39:11.552Z,42.00
2018-07-19T05:41:39.120Z,41.30
2018-07-19T05:44:06.736Z,40.20
2018-07-19T05:46:34.297Z,38.10
2018-07-19T05:49:01.843Z,37.60
2018-07-19T05:51:29.460Z,37.00
2018-07-19T05:53:57.124Z,36.10
2018-07-19T05:56:24.700Z,35.10
2018-07-19T05:58:52.340Z,35.10
2018-07-19T06:01:20.208Z,34.20
2018-07-19T06:03:47.763Z,33.00
2018-07-19T06:06:15.332Z,32.20
2018-07-19T06:08:42.895Z,33.00
2018-07-19T06:11:10.468Z,32.60
2018-07-19T06:13:38.333Z,31.70
2018-07-19T06:16:05.908Z,31.90
2018-07-19T06:18:33.492Z,31.90
2018-07-19T06:21:01.032Z,31.70
2018-07-19T06:23:28.579Z,31.40
2018-07-19T06:25:56.128Z,30.40
2018-07-19T06:28:23.749Z,29.90
2018-07-19T06:30:51.228Z,30.10
2018-07-19T06:33:19.008Z,30.50
2018-07-19T06:35:46.762Z,30.30
2018-07-19T06:38:14.328Z,30.40
2018-07-19T06:40:41.888Z,30.40
2018-07-19T06:43:09.651Z,30.20
2018-07-19T06:45:37.199Z,30.30
2018-07-19T06:48:04.780Z,30.40
2018-07-19T06:52:59.979Z,30.00
2018-07-19T06:55:27.536Z,30.40
2018-07-19T06:57:55.105Z,30.30
2018-07-19T07:00:22.786Z,30.40
2018-07-19T07:02:50.336Z,30.50
2018-07-19T07:05:17.891Z,30.00
2018-07-19T07:07:45.416Z,29.90
2018-07-19T07:10:12.988Z,30.60
2018-07-19T07:12:40.529Z,30.40
2018-07-19T07:15:08.360Z,30.60
2018-07-19T07:17:35.900Z,31.00
2018-07-19T07:20:03.710Z,31.00
2018-07-19T07:22:31.237Z,31.10
2018-07-19T07:24:58.777Z,31.30
2018-07-19T07:27:26.292Z,31.50
2018-07-19T07:29:53.817Z,31.80
2018-07-19T07:32:21.360Z,32.30
2018-07-19T07:34:48.904Z,32.20
2018-07-19T07:37:16.585Z,32.20
2018-07-19T07:39:44.521Z,32.30
2018-07-19T07:42:12.049Z,32.50
2018-07-19T07:44:39.595Z,32.60
2018-07-19T07:47:07.120Z,32.80
2018-07-19T07:52:02.274Z,33.10
2018-07-19T07:54:29.815Z,33.50
2018-07-19T07:56:57.364Z,34.20
2018-07-19T07:59:24.936Z,35.40
2018-07-19T08:01:52.410Z,36.00
2018-07-19T08:04:19.992Z,35.80
2018-07-19T08:06:47.512Z,35.70
2018-07-19T08:09:15.030Z,35.70
2018-07-19T08:11:42.580Z,35.70
2018-07-19T08:14:10.099Z,35.40
2018-07-19T08:16:37.648Z,35.30
2018-07-19T08:19:05.199Z,35.30
2018-07-19T08:24:00.340Z,35.10
2018-07-19T08:26:27.872Z,35.10
2018-07-19T08:28:55.459Z,35.10
2018-07-19T08:31:22.964Z,35.70
2018-07-19T08:33:50.504Z,35.90
2018-07-19T08:36:18.040Z,36.00
2018-07-19T08:38:45.584Z,36.10
2018-07-19T08:41:13.159Z,35.40
2018-07-19T08:43:40.672Z,36.30
2018-07-19T08:46:08.208Z,36.30
2018-07-19T08:48:35.731Z,36.90
2018-07-19T08:51:03.273Z,37.70
2018-07-19T08:53:30.865Z,38.50
2018-07-19T08:58:25.767Z,39.20
2018-07-19T09:00:53.292Z,38.00
2018-07-19T09:03:21.400Z,37.70
2018-07-19T09:05:49.067Z,37.40
2018-07-19T09:08:16.615Z,36.80
2018-07-19T09:10:44.152Z,37.20
2018-07-19T09:13:11.671Z,37.70
2018-07-19T09:15:39.199Z,38.80
2018-07-19T09:18:06.767Z,39.80
2018-07-19T09:20:34.300Z,40.10
2018-07-19T09:23:01.832Z,40.70
2018-07-19T09:25:29.347Z,41.80
2018-07-19T09:27:56.885Z,42.70
2018-07-19T09:30:24.409Z,42.90
2018-07-19T09:32:51.977Z,42.30
2018-07-19T09:35:19.507Z,41.40
2018-07-19T09:37:47.039Z,40.60
2018-07-19T09:40:14.569Z,40.10
2018-07-19T09:42:42.107Z,39.00
2018-07-19T09:45:09.620Z,39.10
2018-07-19T09:47:37.164Z,39.20
2018-07-19T09:50:04.718Z,38.90
2018-07-19T09:52:32.403Z,38.70
2018-07-19T09:55:01.075Z,38.60
2018-07-19T09:57:29.359Z,37.60
2018-07-19T09:59:56.964Z,37.30
2018-07-19T10:02:24.688Z,36.60
2018-07-19T10:04:52.212Z,37.10
2018-07-19T10:07:20.216Z,37.00
2018-07-19T10:09:47.749Z,37.40
2018-07-19T10:12:15.303Z,36.80
2018-07-19T10:14:42.851Z,36.70
2018-07-19T10:17:10.441Z,37.10
2018-07-19T10:19:37.991Z,36.80
2018-07-19T10:22:05.560Z,35.50
2018-07-19T10:24:33.136Z,35.40
2018-07-19T10:27:00.680Z,35.20
2018-07-19T10:29:28.226Z,35.30
2018-07-19T10:31:56.052Z,36.00
2018-07-19T10:34:23.691Z,35.60
2018-07-19T10:36:51.239Z,34.90
2018-07-19T10:39:18.812Z,34.20
2018-07-19T10:41:46.356Z,35.60
2018-07-19T10:44:13.919Z,37.00
2018-07-19T10:46:41.496Z,37.80
2018-07-19T10:49:09.065Z,38.10
2018-07-19T10:51:36.975Z,37.50
2018-07-19T10:54:04.544Z,36.70
2018-07-19T10:56:32.104Z,36.20
2018-07-19T10:58:59.822Z,36.20
2018-07-19T11:01:27.343Z,36.10
2018-07-19T11:03:54.896Z,35.50
2018-07-19T11:06:22.427Z,35.60
2018-07-19T11:08:49.971Z,35.90
2018-07-19T11:11:17.540Z,35.60
2018-07-19T11:13:45.084Z,35.30
2018-07-19T11:16:12.600Z,34.60
2018-07-19T11:18:40.123Z,34.40
2018-07-19T11:21:07.703Z,34.10
2018-07-19T11:23:35.208Z,35.60
2018-07-19T11:26:02.743Z,36.00
2018-07-19T11:28:54.857Z,35.70
2018-07-19T11:31:22.392Z,35.10
2018-07-19T11:33:49.913Z,33.90
2018-07-19T11:36:17.444Z,34.50
2018-07-19T11:38:45.012Z,35.50
2018-07-19T11:41:12.528Z,37.00
2018-07-19T11:43:40.031Z,36.20
2018-07-19T11:46:07.535Z,35.20
2018-07-19T11:48:35.044Z,34.80
2018-07-19T11:51:02.575Z,34.30
2018-07-19T11:53:30.104Z,33.90
2018-07-19T11:55:57.632Z,33.60
2018-07-19T11:58:25.164Z,33.90
2018-07-19T12:00:52.671Z,34.30
2018-07-19T12:03:20.172Z,33.70
2018-07-19T12:05:47.712Z,33.90
2018-07-19T12:08:15.249Z,33.80
2018-07-19T12:10:42.780Z,33.50
2018-07-19T12:13:10.308Z,33.70
2018-07-19T12:15:37.825Z,34.60
2018-07-19T12:18:05.415Z,34.30
2018-07-19T12:20:32.871Z,34.20
2018-07-19T12:23:00.396Z,33.30
2018-07-19T12:25:27.917Z,32.30
2018-07-19T12:27:55.436Z,31.40
2018-07-19T12:30:22.947Z,32.10
2018-07-19T12:33:02.924Z,32.20
2018-07-19T12:35:30.429Z,32.10
2018-07-19T12:37:57.947Z,33.20
2018-07-19T12:40:32.248Z,33.40
2018-07-19T12:42:59.766Z,32.90
2018-07-19T12:45:27.276Z,31.80
2018-07-19T12:47:54.810Z,31.60
2018-07-19T12:50:37.251Z,31.50
2018-07-19T12:55:32.356Z,30.60
2018-07-19T12:57:59.859Z,30.30
2018-07-19T13:00:27.370Z,30.00
2018-07-19T13:03:16.629Z,29.60
2018-07-19T13:05:44.127Z,30.10
2018-07-19T13:08:11.664Z,30.70
2018-07-19T13:11:11.441Z,31.00
2018-07-19T13:13:38.982Z,30.40
2018-07-19T13:16:06.552Z,30.30
2018-07-19T13:18:34.176Z,29.80
2018-07-19T13:21:01.745Z,30.00
2018-07-19T13:23:29.289Z,30.10
2018-07-19T13:25:56.835Z,30.50
2018-07-19T13:28:24.361Z,31.30
2018-07-19T13:30:51.946Z,32.90
2018-07-19T13:33:19.604Z,34.80
2018-07-19T13:35:47.148Z,36.00
2018-07-19T13:38:25.296Z,37.10
2018-07-19T13:40:56.568Z,38.10
2018-07-19T13:43:24.112Z,38.10
2018-07-19T13:45:51.652Z,38.60
2018-07-19T13:48:21.225Z,38.80
2018-07-19T13:50:48.769Z,39.00
2018-07-19T13:53:42.823Z,39.50
2018-07-19T13:56:33.604Z,38.90
2018-07-19T13:59:01.141Z,39.00
2018-07-19T14:01:40.105Z,39.10
2018-07-19T14:04:07.961Z,39.80
2018-07-19T14:06:35.551Z,40.30
2018-07-19T14:09:06.182Z,40.70
2018-07-19T14:11:33.733Z,40.20
2018-07-19T14:14:01.249Z,39.90
2018-07-19T14:16:28.756Z,39.20
2018-07-19T14:18:56.277Z,38.90
2018-07-19T14:21:23.796Z,38.80
2018-07-19T14:23:51.307Z,39.00
2018-07-19T14:26:18.820Z,38.50
2018-07-19T14:28:46.334Z,38.10
2018-07-19T14:31:13.840Z,38.90
2018-07-19T14:33:41.349Z,39.30
2018-07-19T14:36:08.884Z,39.10
2018-07-19T14:38:36.420Z,39.00
2018-07-19T14:41:04.076Z,38.80
2018-07-19T14:43:31.603Z,38.60
2018-07-19T14:45:59.118Z,38.40
2018-07-19T14:48:26.634Z,37.80
2018-07-19T14:50:54.160Z,38.20
2018-07-19T14:53:21.672Z,38.40
2018-07-19T14:55:49.180Z,38.50
2018-07-19T14:58:16.716Z,38.20
2018-07-19T15:00:44.282Z,38.10
2018-07-19T15:03:11.807Z,38.00
2018-07-19T15:05:39.303Z,37.70
2018-07-19T15:08:06.813Z,38.10
2018-07-19T15:10:34.322Z,38.00
2018-07-19T15:13:01.842Z,37.70
2018-07-19T15:15:29.372Z,37.70
2018-07-19T15:17:56.898Z,37.60
2018-07-19T15:20:24.406Z,37.80
2018-07-19T15:22:51.972Z,37.60
2018-07-19T15:25:19.481Z,37.60
2018-07-19T15:27:47.014Z,37.50
2018-07-19T15:30:14.535Z,37.20
2018-07-19T15:32:42.040Z,37.30
2018-07-19T15:35:09.549Z,37.30
2018-07-19T15:37:37.093Z,37.10
2018-07-19T15:40:05.575Z,37.10
2018-07-19T15:42:33.111Z,37.20
2018-07-19T15:45:00.640Z,37.50
2018-07-19T15:47:28.147Z,37.70
2018-07-19T15:49:55.679Z,37.90
2018-07-19T15:52:23.247Z,38.70
2018-07-19T15:54:50.756Z,38.80
2018-07-19T15:57:18.491Z,39.00
2018-07-19T15:59:46.259Z,39.10
2018-07-19T16:02:13.764Z,39.70
2018-07-19T16:04:41.279Z,40.00
2018-07-19T16:07:08.793Z,40.50
2018-07-19T16:09:36.311Z,40.50
2018-07-19T16:12:03.857Z,40.50
2018-07-19T16:14:31.404Z,40.50
2018-07-19T16:16:58.925Z,40.50
2018-07-19T16:19:26.435Z,40.20
2018-07-19T16:21:53.992Z,40.00
2018-07-19T16:24:21.536Z,40.10
2018-07-19T16:26:49.078Z,40.60
2018-07-19T16:29:16.607Z,40.80
2018-07-19T16:31:44.132Z,41.10
2018-07-19T16:34:11.679Z,41.40
2018-07-19T16:36:39.211Z,41.50
2018-07-19T16:39:08.348Z,41.80
2018-07-19T16:41:36.112Z,42.00
2018-07-19T16:44:03.656Z,42.30
2018-07-19T16:46:31.245Z,43.00
2018-07-19T16:48:58.828Z,42.70
2018-07-19T16:51:26.375Z,43.00
2018-07-19T16:53:53.912Z,43.20
2018-07-19T16:56:21.472Z,43.30
2018-07-19T16:58:49.008Z,43.80
2018-07-19T17:01:16.693Z,44.10
2018-07-19T17:03:44.231Z,44.30
2018-07-19T17:06:11.788Z,45.10
2018-07-19T17:08:39.324Z,44.90
2018-07-19T17:11:06.835Z,45.00
2018-07-19T17:16:02.251Z,45.60
2018-07-19T17:18:29.772Z,45.60
2018-07-19T17:20:57.282Z,45.70
2018-07-19T17:23:24.801Z,45.90
2018-07-19T17:25:52.298Z,46.10
2018-07-19T17:28:25.701Z,46.50
2018-07-19T17:30:53.214Z,46.90
2018-07-19T17:33:20.735Z,47.10
2018-07-19T17:35:48.239Z,47.50
2018-07-19T17:38:15.755Z,47.70
2018-07-19T17:40:43.275Z,48.20
2018-07-19T17:43:10.779Z,48.40
2018-07-19T17:45:38.287Z,48.40
2018-07-19T17:48:05.968Z,48.30
2018-07-19T17:50:33.477Z,48.40
2018-07-19T17:53:00.987Z,48.90
2018-07-19T17:55:28.508Z,48.30
2018-07-19T17:57:56.023Z,48.80
2018-07-19T18:00:23.545Z,48.40
2018-07-19T18:02:51.072Z,48.60
2018-07-19T18:05:18.581Z,48.60
2018-07-19T18:10:13.692Z,48.80
2018-07-19T18:12:41.252Z,49.00
2018-07-19T18:15:08.816Z,49.20
2018-07-19T18:17:36.361Z,49.60
2018-07-19T18:20:04.706Z,49.80
2018-07-19T18:22:32.238Z,50.30
2018-07-19T18:24:59.782Z,50.60
2018-07-19T18:27:27.307Z,50.70
2018-07-19T18:29:54.869Z,51.00
2018-07-19T18:32:22.409Z,51.30
2018-07-19T18:34:57.419Z,51.60
2018-07-19T18:37:24.941Z,51.90
2018-07-19T18:39:52.488Z,52.30
2018-07-19T18:42:20.025Z,52.70
2018-07-19T18:44:47.555Z,52.80
2018-07-19T18:47:15.084Z,53.30
2018-07-19T18:49:42.615Z,53.70
2018-07-19T18:52:10.148Z,54.10
2018-07-19T18:54:37.679Z,54.30
2018-07-19T18:57:05.219Z,54.70
2018-07-19T18:59:32.767Z,55.10
2018-07-19T19:02:00.356Z,55.70
2018-07-19T19:06:55.840Z,56.60
2018-07-19T19:09:23.376Z,57.00
2018-07-19T19:11:50.893Z,57.50
2018-07-19T19:14:18.421Z,58.00
2018-07-19T19:16:45.929Z,58.60
2018-07-19T19:19:13.449Z,59.00
2018-07-19T19:21:40.993Z,59.50
2018-07-19T19:24:08.508Z,60.00
2018-07-19T19:26:36.023Z,60.70
2018-07-19T19:29:03.542Z,61.20
2018-07-19T19:31:31.064Z,61.60
2018-07-19T19:33:58.575Z,62.10
2018-07-19T19:36:26.092Z,63.50
2018-07-19T19:38:53.600Z,63.30
2018-07-19T19:41:21.218Z,63.90
2018-07-19T19:46:16.538Z,64.90
2018-07-19T19:48:44.072Z,65.20
2018-07-19T19:51:11.583Z,65.60
2018-07-19T19:53:39.101Z,66.10
2018-07-19T19:56:06.612Z,66.40
2018-07-19T19:58:34.173Z,66.60
2018-07-19T20:01:01.655Z,67.30
2018-07-19T20:03:29.160Z,67.80
2018-07-19T20:05:56.911Z,68.10
2018-07-19T20:08:24.419Z,68.40
2018-07-19T20:10:51.971Z,68.50
2018-07-19T20:13:19.510Z,68.90
2018-07-19T20:15:47.056Z,69.30
2018-07-19T20:18:14.588Z,69.70
2018-07-19T20:20:42.123Z,69.90
2018-07-19T20:23:09.665Z,70.20
2018-07-19T20:25:37.202Z,70.80
2018-07-19T20:28:04.744Z,71.30
2018-07-19T20:30:32.276Z,71.80
2018-07-19T20:32:59.832Z,72.10
2018-07-19T20:35:27.364Z,72.70
2018-07-19T20:37:54.903Z,72.90
2018-07-19T20:40:29.623Z,73.30
2018-07-19T20:42:57.167Z,73.90
2018-07-19T20:45:24.936Z,74.20
2018-07-19T20:47:52.476Z,74.60
2018-07-19T20:50:20.008Z,75.10
2018-07-19T20:52:47.530Z,75.20
2018-07-19T20:55:15.063Z,75.80
2018-07-19T20:57:42.605Z,76.20
2018-07-19T21:00:10.165Z,76.40
2018-07-19T21:02:37.728Z,76.70
2018-07-19T21:05:05.303Z,76.80
2018-07-19T21:07:32.823Z,77.20
2018-07-19T21:10:00.437Z,77.50
2018-07-19T21:12:27.907Z,77.80
2018-07-19T21:14:55.430Z,78.20
2018-07-19T21:17:22.948Z,78.20
2018-07-19T21:19:50.471Z,78.40
2018-07-19T21:22:17.979Z,79.20
2018-07-19T21:24:45.487Z,80.30
2018-07-19T21:27:16.832Z,79.80
2018-07-19T21:30:14.052Z,80.00
2018-07-19T21:32:59.344Z,80.10
2018-07-19T21:35:52.488Z,80.20
2018-07-19T21:38:20.008Z,80.20
2018-07-19T21:40:47.530Z,80.50
2018-07-19T21:43:20.744Z,80.80
2018-07-19T21:45:48.265Z,81.40
2018-07-19T21:48:15.788Z,81.80
2018-07-19T21:50:43.304Z,82.20
2018-07-19T21:53:10.976Z,82.80
2018-07-19T21:55:38.495Z,83.30
2018-07-19T21:58:29.240Z,83.60
2018-07-19T22:01:09.911Z,84.10
2018-07-19T22:03:37.772Z,84.20
2018-07-19T22:06:05.418Z,84.80
2018-07-19T22:11:45.084Z,84.60
2018-07-19T22:14:29.752Z,85.00
2018-07-19T22:16:57.315Z,85.20
2018-07-19T22:19:41.247Z,85.70
2018-07-19T22:22:08.751Z,86.10
2018-07-19T22:24:36.251Z,86.60
2018-07-19T22:27:03.776Z,87.20
2018-07-19T22:29:31.277Z,87.30
2018-07-19T22:31:58.800Z,87.30
2018-07-19T22:34:26.336Z,87.20
2018-07-19T22:39:21.419Z,87.70
2018-07-19T22:41:48.933Z,88.00
2018-07-19T22:44:16.498Z,88.40
2018-07-19T22:46:44.015Z,88.90
2018-07-19T22:49:11.507Z,89.20
2018-07-19T22:51:39.054Z,89.60
2018-07-19T22:54:06.581Z,89.90
2018-07-19T22:56:34.099Z,90.00
2018-07-19T22:59:01.611Z,90.20
2018-07-19T23:01:29.115Z,90.20
2018-07-19T23:03:56.624Z,90.40
2018-07-19T23:06:24.120Z,90.60
2018-07-19T23:08:51.629Z,90.80
2018-07-19T23:11:19.151Z,90.80
2018-07-19T23:13:46.676Z,90.80
2018-07-19T23:16:14.643Z,90.90
2018-07-19T23:18:42.148Z,91.10
2018-07-19T23:21:09.664Z,91.00
2018-07-19T23:23:37.176Z,91.40
2018-07-19T23:26:05.461Z,91.60
2018-07-19T23:28:32.996Z,91.80
2018-07-19T23:31:00.523Z,91.90
2018-07-19T23:33:28.402Z,92.10
2018-07-19T23:36:01.808Z,92.30
2018-07-19T23:38:35.503Z,92.50
2018-07-19T23:41:06.127Z,92.70
2018-07-19T23:43:36.455Z,92.80
2018-07-19T23:46:08.623Z,93.00
2018-07-19T23:48:36.156Z,93.10
2018-07-19T23:51:03.667Z,93.20
2018-07-19T23:53:31.183Z,93.50
2018-07-19T23:55:58.687Z,93.20
2018-07-19T23:58:26.205Z,93.20
